createdAt,value
2017-11-17T00:01:17.031Z,46.20
2017-11-17T00:03:44.520Z,46.20
2017-11-17T00:06:11.967Z,42.97
2017-11-17T00:08:39.456Z,42.97
2017-11-17T00:11:06.893Z,49.13
2017-11-17T00:13:34.354Z,44.43
2017-11-17T00:16:02.162Z,45.33
2017-11-17T00:18:29.816Z,35.83
2017-11-17T00:20:57.254Z,43.23
2017-11-17T00:23:24.771Z,43.27
2017-11-17T00:25:52.218Z,49.17
2017-11-17T00:28:19.756Z,42.37
2017-11-17T00:30:47.237Z,40.90
2017-11-17T00:33:14.691Z,47.30
2017-11-17T00:35:42.128Z,41.63
2017-11-17T00:38:11.145Z,46.90
2017-11-17T00:40:38.594Z,40.00
2017-11-17T00:43:06.049Z,53.23
2017-11-17T00:45:33.530Z,40.23
2017-11-17T00:48:00.974Z,42.17
2017-11-17T00:50:28.468Z,37.87
2017-11-17T00:52:55.937Z,40.10
2017-11-17T00:55:23.472Z,41.57
2017-11-17T00:57:50.959Z,45.23
2017-11-17T01:00:18.402Z,40.90
2017-11-17T01:02:45.854Z,46.67
2017-11-17T01:05:13.310Z,43.03
2017-11-17T01:07:40.768Z,40.70
2017-11-17T01:10:08.216Z,44.20
2017-11-17T01:12:36.480Z,46.90
2017-11-17T01:15:05.121Z,45.27
2017-11-17T01:17:32.548Z,46.30
2017-11-17T01:19:59.995Z,41.70
2017-11-17T01:22:29.073Z,41.37
2017-11-17T01:24:56.605Z,46.73
2017-11-17T01:27:24.049Z,50.73
2017-11-17T01:29:51.509Z,48.70
2017-11-17T01:32:19.889Z,41.17
2017-11-17T01:34:49.144Z,41.53
2017-11-17T01:37:16.580Z,46.00
2017-11-17T01:39:44.034Z,43.00
2017-11-17T01:42:11.480Z,46.87
2017-11-17T01:44:39.089Z,56.53
2017-11-17T01:47:06.550Z,43.67
2017-11-17T01:49:33.980Z,47.67
2017-11-17T01:52:01.413Z,42.30
2017-11-17T01:54:28.862Z,45.27
2017-11-17T01:56:56.699Z,53.77
2017-11-17T01:59:24.137Z,42.30
2017-11-17T02:01:51.577Z,45.37
2017-11-17T02:04:19.070Z,45.00
2017-11-17T02:06:46.520Z,44.13
2017-11-17T02:09:13.962Z,43.13
2017-11-17T02:11:41.385Z,51.80
2017-11-17T02:14:10.674Z,45.13
2017-11-17T02:16:38.206Z,49.47
2017-11-17T02:19:05.660Z,50.20
2017-11-17T02:21:33.096Z,46.27
2017-11-17T02:24:00.524Z,50.77
2017-11-17T02:26:28.881Z,44.77
2017-11-17T02:28:56.440Z,38.03
2017-11-17T02:31:23.868Z,45.87
2017-11-17T02:33:51.373Z,47.37
2017-11-17T02:36:18.909Z,44.93
2017-11-17T02:38:46.391Z,44.13
2017-11-17T02:41:13.838Z,48.57
2017-11-17T02:43:41.258Z,46.03
2017-11-17T02:46:09.183Z,42.53
2017-11-17T02:48:36.643Z,50.10
2017-11-17T02:51:04.097Z,44.43
2017-11-17T02:53:31.545Z,40.03
2017-11-17T02:55:58.979Z,48.70
2017-11-17T02:58:27.440Z,46.83
2017-11-17T03:00:54.980Z,54.73
2017-11-17T03:03:22.436Z,46.33
2017-11-17T03:05:49.888Z,51.23
2017-11-17T03:08:17.357Z,45.57
2017-11-17T03:10:44.789Z,46.20
2017-11-17T03:13:13.943Z,46.23
2017-11-17T03:15:41.417Z,40.43
2017-11-17T03:18:08.889Z,45.57
2017-11-17T03:20:36.321Z,48.03
2017-11-17T03:23:03.778Z,38.83
2017-11-17T03:25:31.220Z,41.03
2017-11-17T03:27:58.694Z,37.70
2017-11-17T03:30:26.129Z,41.67
2017-11-17T03:32:53.624Z,39.73
2017-11-17T03:35:21.070Z,38.60
2017-11-17T03:37:48.978Z,43.57
2017-11-17T03:40:16.438Z,43.03
2017-11-17T03:42:43.874Z,40.70
2017-11-17T03:45:11.326Z,38.90
2017-11-17T03:47:38.773Z,45.73
2017-11-17T03:50:06.206Z,36.67
2017-11-17T03:52:34.122Z,42.53
2017-11-17T03:55:01.555Z,40.43
2017-11-17T03:57:29.399Z,36.03
2017-11-17T03:59:56.817Z,39.60
2017-11-17T04:02:24.273Z,38.30
2017-11-17T04:04:51.725Z,42.53
2017-11-17T04:07:19.152Z,42.37
2017-11-17T04:09:46.999Z,36.97
2017-11-17T04:12:14.428Z,41.90
2017-11-17T04:14:41.858Z,41.40
2017-11-17T04:17:09.363Z,43.33
2017-11-17T04:19:36.812Z,42.90
2017-11-17T04:22:04.246Z,47.33
2017-11-17T04:24:32.214Z,50.10
2017-11-17T04:27:00.185Z,41.57
2017-11-17T04:29:28.097Z,47.80
2017-11-17T04:31:55.536Z,45.47
2017-11-17T04:34:22.976Z,47.30
2017-11-17T04:36:50.810Z,48.10
2017-11-17T04:39:18.248Z,52.53
2017-11-17T04:41:45.680Z,42.77
2017-11-17T04:44:13.117Z,42.87
2017-11-17T04:46:40.630Z,41.80
2017-11-17T04:49:08.074Z,46.77
2017-11-17T04:51:35.506Z,41.63
2017-11-17T04:54:03.147Z,42.33
2017-11-17T04:56:30.574Z,46.87
2017-11-17T04:58:58.001Z,41.57
2017-11-17T05:01:25.861Z,41.17
2017-11-17T05:03:53.277Z,52.10
2017-11-17T05:06:20.752Z,56.20
2017-11-17T05:08:48.204Z,52.83
2017-11-17T05:11:15.657Z,48.57
2017-11-17T05:13:43.101Z,46.77
2017-11-17T05:16:10.930Z,41.73
2017-11-17T05:18:38.367Z,43.30
2017-11-17T05:21:05.811Z,45.63
2017-11-17T05:23:33.268Z,50.60
2017-11-17T05:26:00.795Z,49.60
2017-11-17T05:28:28.620Z,49.17
2017-11-17T05:30:56.081Z,54.23
2017-11-17T05:33:23.523Z,41.53
2017-11-17T05:35:50.947Z,39.10
2017-11-17T05:38:18.788Z,42.57
2017-11-17T05:40:46.324Z,44.23
2017-11-17T05:43:13.765Z,44.83
2017-11-17T05:45:41.250Z,44.40
2017-11-17T05:48:08.690Z,57.70
2017-11-17T05:50:36.507Z,40.40
2017-11-17T05:53:03.938Z,38.10
2017-11-17T05:55:31.411Z,53.20
2017-11-17T05:57:58.849Z,42.67
2017-11-17T06:00:26.288Z,41.57
2017-11-17T06:02:54.125Z,43.37
2017-11-17T06:05:21.594Z,40.47
2017-11-17T06:07:49.115Z,43.70
2017-11-17T06:10:16.592Z,40.10
2017-11-17T06:12:44.055Z,48.03
2017-11-17T06:15:11.508Z,42.07
2017-11-17T06:17:38.969Z,41.90
2017-11-17T06:20:06.425Z,47.30
2017-11-17T06:22:33.844Z,60.37
2017-11-17T06:25:01.669Z,45.03
2017-11-17T06:27:29.118Z,43.83
2017-11-17T06:29:56.574Z,44.10
2017-11-17T06:32:24.040Z,46.27
2017-11-17T06:34:52.818Z,47.73
2017-11-17T06:37:20.293Z,49.47
2017-11-17T06:39:47.734Z,44.30
2017-11-17T06:42:15.561Z,58.77
2017-11-17T06:44:43.105Z,41.17
2017-11-17T06:47:10.561Z,49.37
2017-11-17T06:49:37.994Z,39.40
2017-11-17T06:52:05.463Z,44.10
2017-11-17T06:54:32.966Z,43.20
2017-11-17T06:57:00.397Z,55.60
2017-11-17T06:59:27.846Z,39.80
2017-11-17T07:01:55.276Z,43.63
2017-11-17T07:04:23.105Z,50.83
2017-11-17T07:06:50.673Z,50.43
2017-11-17T07:09:18.131Z,51.80
2017-11-17T07:11:46.097Z,41.17
2017-11-17T07:14:13.558Z,45.23
2017-11-17T07:16:41.020Z,54.37
2017-11-17T07:19:08.445Z,39.30
2017-11-17T07:21:35.890Z,43.17
2017-11-17T07:24:03.714Z,51.07
2017-11-17T07:26:31.183Z,49.67
2017-11-17T07:28:58.594Z,44.83
2017-11-17T07:31:26.014Z,49.57
2017-11-17T07:33:53.550Z,46.87
2017-11-17T07:36:21.005Z,52.13
2017-11-17T07:38:48.489Z,45.87
2017-11-17T07:41:15.949Z,36.97
2017-11-17T07:43:43.645Z,41.70
2017-11-17T07:46:11.063Z,47.53
2017-11-17T07:48:38.530Z,64.90
2017-11-17T07:51:05.944Z,43.20
2017-11-17T07:53:33.768Z,49.33
2017-11-17T07:56:01.232Z,53.03
2017-11-17T07:58:28.677Z,46.27
2017-11-17T08:00:56.112Z,51.73
2017-11-17T08:03:24.022Z,52.70
2017-11-17T08:05:51.442Z,48.57
2017-11-17T08:08:19.681Z,43.43
2017-11-17T08:10:47.220Z,44.10
2017-11-17T08:13:14.656Z,55.63
2017-11-17T08:15:42.654Z,55.27
2017-11-17T08:18:22.169Z,53.73
2017-11-17T08:20:49.589Z,54.40
2017-11-17T08:23:17.022Z,55.10
2017-11-17T08:25:44.468Z,62.13
2017-11-17T08:28:11.905Z,49.00
2017-11-17T08:30:39.329Z,56.60
2017-11-17T08:33:06.868Z,48.43
2017-11-17T08:35:34.350Z,46.83
2017-11-17T08:38:01.785Z,50.70
2017-11-17T08:40:29.251Z,51.93
2017-11-17T08:42:56.679Z,49.37
2017-11-17T08:45:24.497Z,49.13
2017-11-17T08:47:51.936Z,47.20
2017-11-17T08:50:19.401Z,45.83
2017-11-17T08:52:46.826Z,45.03
2017-11-17T08:55:14.679Z,56.37
2017-11-17T08:57:42.116Z,46.70
2017-11-17T09:00:09.555Z,47.23
2017-11-17T09:02:38.148Z,57.23
2017-11-17T09:05:05.590Z,48.33
2017-11-17T09:07:33.050Z,46.30
2017-11-17T09:10:00.505Z,51.47
2017-11-17T09:12:28.011Z,42.13
2017-11-17T09:14:55.434Z,46.30
2017-11-17T09:17:22.866Z,51.20
2017-11-17T09:19:51.086Z,45.40
2017-11-17T09:22:18.513Z,61.10
2017-11-17T09:24:46.351Z,57.50
2017-11-17T09:27:14.642Z,41.00
2017-11-17T09:29:42.069Z,42.13
2017-11-17T09:32:09.527Z,40.50
2017-11-17T09:34:37.002Z,48.63
2017-11-17T09:37:04.429Z,51.03
2017-11-17T09:39:31.855Z,55.97
2017-11-17T09:41:59.289Z,45.33
2017-11-17T09:44:26.752Z,48.30
2017-11-17T09:46:55.019Z,43.10
2017-11-17T09:49:22.441Z,46.03
2017-11-17T09:51:50.270Z,56.83
2017-11-17T09:54:17.711Z,53.17
2017-11-17T09:56:45.150Z,55.70
2017-11-17T09:59:12.573Z,49.33
2017-11-17T10:01:42.389Z,52.63
2017-11-17T10:04:09.830Z,57.67
2017-11-17T10:06:37.373Z,53.07
2017-11-17T10:09:04.808Z,46.73
2017-11-17T10:11:32.296Z,57.87
2017-11-17T10:13:59.742Z,57.47
2017-11-17T10:16:27.183Z,54.43
2017-11-17T10:18:55.033Z,52.30
2017-11-17T10:21:22.471Z,45.90
2017-11-17T10:23:49.913Z,45.10
2017-11-17T10:26:17.359Z,47.70
2017-11-17T10:28:44.840Z,45.70
2017-11-17T10:31:12.287Z,48.83
2017-11-17T10:33:40.082Z,47.50
2017-11-17T10:36:07.528Z,57.67
2017-11-17T10:38:34.962Z,46.37
2017-11-17T10:41:02.397Z,51.00
2017-11-17T10:43:30.223Z,47.37
2017-11-17T10:45:57.793Z,53.33
2017-11-17T10:48:25.230Z,53.97
2017-11-17T10:50:52.712Z,47.03
2017-11-17T10:53:20.265Z,53.80
2017-11-17T10:55:47.697Z,44.73
2017-11-17T10:58:15.524Z,41.30
2017-11-17T11:00:42.974Z,58.10
2017-11-17T11:03:10.408Z,48.40
2017-11-17T11:05:37.900Z,50.23
2017-11-17T11:08:05.355Z,48.03
2017-11-17T11:10:38.795Z,57.07
2017-11-17T11:13:06.217Z,48.57
2017-11-17T11:15:33.645Z,50.07
2017-11-17T11:18:01.076Z,40.63
2017-11-17T11:20:28.593Z,58.70
2017-11-17T11:22:56.057Z,44.40
2017-11-17T11:25:23.515Z,55.67
2017-11-17T11:27:50.972Z,46.77
2017-11-17T11:30:19.361Z,58.50
2017-11-17T11:32:46.818Z,45.33
2017-11-17T11:35:14.297Z,46.27
2017-11-17T11:37:41.726Z,55.23
2017-11-17T11:40:09.205Z,53.73
2017-11-17T11:42:36.649Z,50.63
2017-11-17T11:45:04.073Z,47.20
2017-11-17T11:47:31.499Z,47.97
2017-11-17T11:49:59.067Z,48.47
2017-11-17T11:52:26.515Z,49.03
2017-11-17T11:54:53.973Z,48.60
2017-11-17T11:57:22.248Z,62.40
2017-11-17T11:59:49.665Z,56.37
2017-11-17T12:02:17.505Z,58.40
2017-11-17T12:04:44.961Z,60.43
2017-11-17T12:07:12.401Z,48.77
2017-11-17T12:09:39.865Z,51.13
2017-11-17T12:12:08.153Z,52.37
2017-11-17T12:14:35.587Z,59.50
2017-11-17T12:17:03.489Z,53.07
2017-11-17T12:19:30.928Z,56.70
2017-11-17T12:21:58.354Z,55.27
2017-11-17T12:24:25.872Z,59.47
2017-11-17T12:26:53.362Z,59.20
2017-11-17T12:29:20.904Z,55.57
2017-11-17T12:31:48.336Z,46.23
2017-11-17T12:34:16.149Z,51.37
2017-11-17T12:36:43.581Z,58.20
2017-11-17T12:39:11.050Z,66.20
2017-11-17T12:41:38.516Z,57.27
2017-11-17T12:44:05.985Z,55.00
2017-11-17T12:46:33.434Z,61.40
2017-11-17T12:49:00.853Z,50.23
2017-11-17T12:51:28.361Z,49.37
2017-11-17T12:53:55.809Z,49.57
2017-11-17T12:56:23.226Z,47.80
2017-11-17T12:58:50.769Z,53.77
2017-11-17T13:01:19.033Z,53.03
2017-11-17T13:03:46.477Z,65.07
2017-11-17T13:06:13.912Z,53.30
2017-11-17T13:08:43.176Z,64.67
2017-11-17T13:11:10.943Z,56.93
2017-11-17T13:13:38.404Z,59.60
2017-11-17T13:16:05.841Z,76.10
2017-11-17T13:18:33.261Z,62.07
2017-11-17T13:21:01.178Z,61.00
2017-11-17T13:23:28.608Z,65.80
2017-11-17T13:25:56.438Z,77.03
2017-11-17T13:28:23.897Z,61.47
2017-11-17T13:30:51.322Z,69.00
2017-11-17T13:33:19.214Z,59.77
2017-11-17T13:35:46.661Z,68.13
2017-11-17T13:38:14.095Z,71.93
2017-11-17T13:40:41.974Z,64.47
2017-11-17T13:43:09.891Z,75.40
2017-11-17T13:45:37.357Z,74.70
2017-11-17T13:48:04.802Z,65.03
2017-11-17T13:50:32.230Z,75.03
2017-11-17T13:52:59.713Z,65.07
2017-11-17T13:55:27.257Z,56.77
2017-11-17T13:57:54.865Z,59.60
2017-11-17T14:00:22.291Z,61.90
2017-11-17T14:02:49.769Z,65.90
2017-11-17T14:05:17.221Z,74.90
2017-11-17T14:07:44.676Z,74.50
2017-11-17T14:10:12.108Z,74.13
2017-11-17T14:12:39.540Z,71.97
2017-11-17T14:15:08.093Z,64.80
2017-11-17T14:17:35.584Z,61.57
2017-11-17T14:20:03.038Z,68.23
2017-11-17T14:22:30.492Z,61.80
2017-11-17T14:24:57.958Z,60.67
2017-11-17T14:27:25.395Z,59.97
2017-11-17T14:29:53.069Z,66.67
2017-11-17T14:32:21.155Z,61.97
2017-11-17T14:34:48.602Z,65.33
2017-11-17T14:37:16.042Z,60.37
2017-11-17T14:39:43.940Z,60.43
2017-11-17T14:42:11.404Z,66.67
2017-11-17T14:44:39.002Z,68.13
2017-11-17T14:47:07.695Z,65.57
2017-11-17T14:49:35.110Z,58.37
2017-11-17T14:52:02.717Z,73.77
2017-11-17T14:54:30.245Z,56.87
2017-11-17T14:56:57.818Z,57.10
2017-11-17T14:59:25.282Z,57.87
2017-11-17T15:01:52.745Z,64.73
2017-11-17T15:04:20.200Z,51.77
2017-11-17T15:06:47.676Z,60.27
2017-11-17T15:09:15.096Z,55.60
2017-11-17T15:11:43.308Z,59.27
2017-11-17T15:14:10.742Z,65.70
2017-11-17T15:16:38.192Z,60.10
2017-11-17T15:19:07.602Z,62.37
2017-11-17T15:21:35.428Z,60.77
2017-11-17T15:24:02.883Z,60.40
2017-11-17T15:26:30.445Z,59.33
2017-11-17T15:28:57.896Z,69.97
2017-11-17T15:31:25.325Z,60.37
2017-11-17T15:33:52.777Z,58.80
2017-11-17T15:36:20.637Z,58.73
2017-11-17T15:38:48.465Z,66.57
2017-11-17T15:41:15.912Z,67.00
2017-11-17T15:43:43.386Z,55.97
2017-11-17T15:46:10.837Z,70.07
2017-11-17T15:48:38.281Z,77.63
2017-11-17T15:51:06.751Z,66.67
2017-11-17T15:53:34.591Z,71.30
2017-11-17T15:56:02.042Z,76.13
2017-11-17T15:58:29.457Z,73.20
2017-11-17T16:00:56.949Z,67.67
2017-11-17T16:03:24.352Z,69.77
2017-11-17T16:05:52.207Z,58.93
2017-11-17T16:08:19.782Z,71.20
2017-11-17T16:10:47.229Z,63.40
2017-11-17T16:13:14.673Z,68.80
2017-11-17T16:15:42.102Z,68.07
2017-11-17T16:18:09.587Z,74.07
2017-11-17T16:20:37.023Z,76.40
2017-11-17T16:23:04.461Z,92.30
2017-11-17T16:25:32.386Z,80.57
2017-11-17T16:27:59.847Z,83.23
2017-11-17T16:30:28.020Z,74.07
2017-11-17T16:32:55.439Z,70.20
2017-11-17T16:35:23.282Z,70.43
2017-11-17T16:37:50.741Z,86.87
2017-11-17T16:40:18.183Z,83.10
2017-11-17T16:42:45.654Z,81.37
2017-11-17T16:45:13.068Z,74.83
2017-11-17T16:47:40.564Z,85.27
2017-11-17T16:50:08.004Z,79.30
2017-11-17T16:52:35.429Z,81.47
2017-11-17T16:55:02.870Z,81.87
2017-11-17T16:57:30.315Z,80.13
2017-11-17T16:59:57.763Z,95.67
2017-11-17T17:02:25.339Z,91.23
2017-11-17T17:04:52.771Z,110.77
2017-11-17T17:07:20.252Z,94.43
2017-11-17T17:09:47.679Z,98.83
2017-11-17T17:12:15.507Z,88.60
2017-11-17T17:14:42.957Z,89.80
2017-11-17T17:17:10.421Z,109.93
2017-11-17T17:19:37.848Z,110.93
2017-11-17T17:22:05.321Z,92.63
2017-11-17T17:24:33.162Z,106.10
2017-11-17T17:27:01.022Z,110.63
2017-11-17T17:29:28.448Z,96.80
2017-11-17T17:31:55.890Z,107.47
2017-11-17T17:34:23.333Z,106.97
2017-11-17T17:36:50.785Z,96.83
2017-11-17T17:39:18.690Z,97.30
2017-11-17T17:41:46.171Z,87.33
2017-11-17T17:44:13.611Z,99.40
2017-11-17T17:46:41.064Z,99.87
2017-11-17T17:49:08.486Z,92.10
2017-11-17T17:51:36.314Z,110.53
2017-11-17T17:54:03.770Z,93.83
2017-11-17T17:56:32.043Z,97.30
2017-11-17T17:58:59.469Z,109.10
2017-11-17T18:01:36.897Z,106.80
2017-11-17T18:04:04.359Z,111.80
2017-11-17T18:06:31.780Z,93.87
2017-11-17T18:09:00.377Z,98.03
2017-11-17T18:11:28.222Z,112.60
2017-11-17T18:13:55.643Z,107.90
2017-11-17T18:16:23.221Z,100.83
2017-11-17T18:18:50.648Z,124.27
2017-11-17T18:21:18.081Z,117.97
2017-11-17T18:23:45.536Z,101.20
2017-11-17T18:26:12.993Z,102.83
2017-11-17T18:28:40.534Z,109.33
2017-11-17T18:31:07.981Z,105.00
2017-11-17T18:33:35.451Z,103.53
2017-11-17T18:36:03.019Z,100.33
2017-11-17T18:38:30.480Z,106.47
2017-11-17T18:40:57.922Z,105.50
2017-11-17T18:43:25.418Z,92.70
2017-11-17T18:45:52.801Z,99.73
2017-11-17T18:48:20.654Z,105.37
2017-11-17T18:50:48.119Z,91.67
2017-11-17T18:53:16.107Z,88.23
2017-11-17T18:55:43.509Z,97.97
2017-11-17T18:58:11.018Z,91.27
2017-11-17T19:00:38.378Z,97.80
2017-11-17T19:03:05.857Z,109.03
2017-11-17T19:05:33.694Z,108.00
2017-11-17T19:08:01.155Z,103.40
2017-11-17T19:10:28.555Z,96.10
2017-11-17T19:12:56.530Z,90.33
2017-11-17T19:15:23.972Z,98.37
2017-11-17T19:17:51.407Z,90.70
2017-11-17T19:20:18.853Z,90.13
2017-11-17T19:22:46.290Z,88.23
2017-11-17T19:25:13.868Z,92.40
2017-11-17T19:27:41.309Z,103.73
2017-11-17T19:30:08.776Z,94.17
2017-11-17T19:32:36.661Z,91.83
2017-11-17T19:35:04.865Z,103.83
2017-11-17T19:37:32.300Z,90.37
2017-11-17T19:40:00.179Z,104.00
2017-11-17T19:42:27.612Z,102.77
2017-11-17T19:44:55.471Z,100.20
2017-11-17T19:47:23.296Z,106.50
2017-11-17T19:49:52.153Z,99.00
2017-11-17T19:52:21.749Z,107.30
2017-11-17T19:54:49.755Z,99.93
2017-11-17T19:57:18.328Z,101.90
2017-11-17T19:59:45.794Z,112.43
2017-11-17T20:02:13.932Z,89.70
2017-11-17T20:04:41.768Z,95.43
2017-11-17T20:07:09.210Z,115.73
2017-11-17T20:09:37.241Z,97.73
2017-11-17T20:12:05.457Z,110.73
2017-11-17T20:14:32.916Z,99.80
2017-11-17T20:17:00.347Z,88.40
2017-11-17T20:19:28.187Z,109.00
2017-11-17T20:21:55.649Z,98.67
2017-11-17T20:24:23.076Z,98.73
2017-11-17T20:26:50.506Z,105.50
2017-11-17T20:29:18.388Z,123.23
2017-11-17T20:31:46.213Z,99.80
2017-11-17T20:34:13.669Z,112.43
2017-11-17T20:36:41.172Z,116.87
2017-11-17T20:39:08.999Z,98.17
2017-11-17T20:41:36.436Z,112.23
2017-11-17T20:44:04.007Z,107.30
2017-11-17T20:46:31.436Z,103.63
2017-11-17T20:48:59.271Z,104.00
2017-11-17T20:51:26.745Z,100.30
2017-11-17T20:53:54.170Z,105.07
2017-11-17T20:56:21.631Z,81.57
2017-11-17T20:58:49.109Z,91.43
2017-11-17T21:01:16.543Z,77.57
2017-11-17T21:03:44.111Z,69.50
2017-11-17T21:06:11.797Z,65.97
2017-11-17T21:08:39.342Z,84.67
2017-11-17T21:11:07.019Z,64.70
2017-11-17T21:13:34.454Z,57.90
2017-11-17T21:16:01.936Z,60.07
2017-11-17T21:18:29.366Z,56.67
2017-11-17T21:20:57.187Z,49.87
2017-11-17T21:23:24.724Z,63.37
2017-11-17T21:25:52.241Z,58.13
2017-11-17T21:28:19.667Z,55.93
2017-11-17T21:30:47.118Z,59.97
2017-11-17T21:33:14.573Z,52.80
2017-11-17T21:35:42.038Z,57.10
2017-11-17T21:38:09.487Z,54.40
2017-11-17T21:40:36.897Z,48.57
2017-11-17T21:43:04.417Z,54.03
2017-11-17T21:45:31.846Z,56.93
2017-11-17T21:47:59.722Z,59.90
2017-11-17T21:50:27.985Z,62.23
2017-11-17T21:52:55.409Z,56.27
2017-11-17T21:55:22.858Z,47.87
2017-11-17T21:57:52.782Z,62.50
2017-11-17T22:00:20.244Z,52.10
2017-11-17T22:02:47.692Z,64.53
2017-11-17T22:05:15.121Z,60.57
2017-11-17T22:07:43.239Z,50.27
2017-11-17T22:10:10.726Z,58.30
2017-11-17T22:12:38.256Z,51.30
2017-11-17T22:15:05.798Z,54.43
2017-11-17T22:17:33.620Z,55.10
2017-11-17T22:20:01.051Z,57.47
2017-11-17T22:22:28.512Z,65.57
2017-11-17T22:24:57.080Z,59.07
2017-11-17T22:27:24.568Z,63.20
2017-11-17T22:29:52.022Z,59.93
2017-11-17T22:32:19.485Z,67.80
2017-11-17T22:34:47.291Z,58.53
2017-11-17T22:37:14.729Z,58.07
2017-11-17T22:39:42.570Z,58.10
2017-11-17T22:42:10.468Z,44.33
2017-11-17T22:44:37.917Z,53.03
2017-11-17T22:47:05.466Z,64.97
2017-11-17T22:49:32.938Z,59.57
2017-11-17T22:52:00.360Z,58.33
2017-11-17T22:54:27.816Z,53.20
2017-11-17T22:56:55.656Z,54.20
2017-11-17T22:59:23.142Z,53.80
2017-11-17T23:01:50.632Z,61.13
2017-11-17T23:04:18.041Z,60.97
2017-11-17T23:06:45.492Z,51.63
2017-11-17T23:09:12.938Z,56.80
2017-11-17T23:11:40.413Z,55.07
2017-11-17T23:14:07.888Z,63.70
2017-11-17T23:16:35.349Z,58.90
2017-11-17T23:19:02.802Z,57.13
2017-11-17T23:21:30.235Z,52.70
2017-11-17T23:23:58.105Z,52.23
2017-11-17T23:26:25.998Z,61.90
2017-11-17T23:28:53.421Z,51.23
2017-11-17T23:31:21.359Z,56.83
2017-11-17T23:33:49.587Z,59.13
2017-11-17T23:36:17.412Z,64.77
2017-11-17T23:38:44.993Z,65.00
2017-11-17T23:41:12.413Z,50.83
2017-11-17T23:43:40.031Z,61.77
2017-11-17T23:46:07.465Z,62.63
2017-11-17T23:48:34.918Z,66.27
2017-11-17T23:51:02.349Z,62.67
2017-11-17T23:53:29.776Z,64.53
2017-11-17T23:55:57.613Z,64.00
2017-11-17T23:58:25.063Z,57.00
